Time;durP1;ratioP1;P1;durP2;ratioP2;P2;SDS_P1;SDS_P2;PMS_P1;PMS_P2;Temp;Humidity;BMP_temperature;BMP_pressure;BME280_temperature;BME280_humidity;BME280_pressure;Samples;Min_cycle;Max_cycle;Signal;HPM_P1;HPM_P2
2021/01/17 04:03:06;;;;;;;38.30;18.25;;;;;;;-11.58;100.00;100046.84;1722739;80;21022;-63
2021/01/17 04:05:36;;;;;;;28.98;15.15;;;;;;;-11.58;100.00;100049.80;1722502;81;21148;-64
2021/01/17 04:08:05;;;;;;;26.05;13.78;;;;;;;-11.57;100.00;100042.19;1721642;82;21184;-65
2021/01/17 04:10:33;;;;;;;24.45;12.65;;;;;;;-11.57;100.00;100042.19;1719187;81;21353;-63
2021/01/17 04:13:02;;;;;;;25.82;13.62;;;;;;;-11.56;100.00;100044.27;1721176;82;21088;-65
2021/01/17 04:15:31;;;;;;;26.10;14.07;;;;;;;-11.54;100.00;100043.80;1717397;81;20987;-64
2021/01/17 04:17:59;;;;;;;23.60;12.30;;;;;;;-11.52;100.00;100046.63;1715755;81;21209;-64
2021/01/17 04:20:28;;;;;;;23.30;13.13;;;;;;;-11.50;100.00;100049.11;1720606;81;21111;-64
2021/01/17 04:23:01;;;;;;;24.07;11.55;;;;;;;-11.53;100.00;100046.25;1719513;81;21163;-66
2021/01/17 04:25:29;;;;;;;25.02;12.60;;;;;;;-11.56;100.00;100045.52;1718366;82;21167;-60
2021/01/17 04:27:57;;;;;;;27.48;12.98;;;;;;;-11.63;100.00;100037.37;1722631;81;21265;-63
2021/01/17 04:30:30;;;;;;;24.47;11.33;;;;;;;-11.69;100.00;100035.05;1716386;81;21147;-63
2021/01/17 04:32:59;;;;;;;22.77;12.60;;;;;;;-11.67;100.00;100043.78;1719158;81;21120;-63
2021/01/17 04:35:28;;;;;;;28.12;13.08;;;;;;;-11.70;100.00;100051.01;1721794;81;21527;-60
2021/01/17 04:37:58;;;;;;;22.45;11.60;;;;;;;-11.75;100.00;100047.79;1721336;81;21209;-64
2021/01/17 04:40:28;;;;;;;22.55;11.12;;;;;;;-11.72;100.00;100054.42;1693319;83;21157;-64
2021/01/17 04:43:04;;;;;;;26.27;13.25;;;;;;;-11.69;100.00;100046.36;1721195;81;21164;-64
2021/01/17 04:45:33;;;;;;;24.63;11.85;;;;;;;-11.63;100.00;100051.20;1719410;81;21230;-64
2021/01/17 04:48:03;;;;;;;23.30;12.23;;;;;;;-11.60;100.00;100052.78;1715193;81;21389;-64
2021/01/17 04:50:33;;;;;;;23.95;14.13;;;;;;;-11.58;100.00;100043.51;1718030;81;21088;-65
2021/01/17 04:53:05;;;;;;;24.12;11.80;;;;;;;-11.56;100.00;100045.08;1720823;81;21104;-65
2021/01/17 04:55:36;;;;;;;25.55;13.30;;;;;;;-11.54;100.00;100044.61;1718538;81;21069;-64
2021/01/17 04:58:18;;;;;;;26.97;12.55;;;;;;;-11.57;100.00;100049.73;1717370;81;21223;-64
2021/01/17 05:00:56;;;;;;;17.20;9.55;;;;;;;-11.57;100.00;100048.48;1721243;81;21196;-65
2021/01/17 05:03:53;;;;;;;23.75;11.73;;;;;;;-11.54;100.00;100057.19;1711174;82;22500;-65
2021/01/17 05:06:29;;;;;;;25.75;14.00;;;;;;;-11.50;100.00;100061.69;1708287;82;21061;-64
2021/01/17 05:09:03;;;;;;;25.68;13.60;;;;;;;-11.52;100.00;100075.55;1707204;83;22520;-65
2021/01/17 05:11:39;;;;;;;24.52;12.20;;;;;;;-11.58;100.00;100085.82;1705441;83;21064;-66
2021/01/17 05:14:30;;;;;;;25.55;12.80;;;;;;;-11.64;100.00;100097.31;1707843;82;21547;-65
2021/01/17 05:16:58;;;;;;;20.57;10.65;;;;;;;-11.68;100.00;100097.02;1704662;82;21174;-66
2021/01/17 05:19:27;;;;;;;26.00;12.88;;;;;;;-11.75;100.00;100099.33;1707574;82;21105;-66
2021/01/17 05:21:55;;;;;;;26.00;13.58;;;;;;;-11.82;100.00;100112.53;1707537;83;21249;-62
2021/01/17 05:24:24;;;;;;;26.17;12.88;;;;;;;-11.88;100.00;100116.95;1707643;82;21219;-66
2021/01/17 05:26:55;;;;;;;21.62;11.88;;;;;;;-11.91;100.00;100115.77;1705251;82;21197;-66
2021/01/17 05:29:30;;;;;;;23.30;12.98;;;;;;;-11.92;100.00;100113.70;1709648;82;21168;-66
2021/01/17 05:32:03;;;;;;;27.40;14.73;;;;;;;-11.91;100.00;100119.55;1704998;82;21116;-69
2021/01/17 05:34:31;;;;;;;23.50;12.30;;;;;;;-11.92;100.00;100121.67;1708124;83;21022;-67
2021/01/17 05:37:08;;;;;;;24.60;13.85;;;;;;;-11.91;100.00;100108.23;1706629;82;21203;-66
2021/01/17 05:39:59;;;;;;;26.15;13.53;;;;;;;-11.91;100.00;100111.56;1704896;83;21955;-63
2021/01/17 05:42:41;;;;;;;22.80;11.83;;;;;;;-11.93;100.00;100125.03;1708462;83;21148;-67
2021/01/17 05:45:17;;;;;;;25.08;12.63;;;;;;;-11.98;100.00;100124.35;1709884;82;21057;-68
2021/01/17 05:47:58;;;;;;;23.67;11.85;;;;;;;-11.97;100.00;100129.33;1711327;82;21590;-68
2021/01/17 05:50:31;;;;;;;25.88;11.93;;;;;;;-11.96;100.00;100118.87;1717250;82;21108;-66
2021/01/17 05:53:04;;;;;;;22.95;10.23;;;;;;;-11.93;100.00;100114.98;1709300;82;22610;-67
2021/01/17 05:55:41;;;;;;;23.38;12.15;;;;;;;-11.93;100.00;100103.67;1715766;82;21226;-68
2021/01/17 05:58:22;;;;;;;27.45;13.35;;;;;;;-11.94;100.00;100105.80;1711822;82;21224;-66
2021/01/17 06:00:54;;;;;;;;;;;;;;;-11.93;100.00;100102.01;1687404;82;21239;-65
2021/01/17 06:03:33;;;;;;;28.05;13.28;;;;;;;-11.92;100.00;100107.85;1707163;82;20235;-66
2021/01/17 06:06:06;;;;;;;29.35;14.47;;;;;;;-11.95;100.00;100107.94;1712381;82;21216;-66
2021/01/17 06:08:34;;;;;;;29.02;14.65;;;;;;;-12.00;100.00;100113.54;1710604;82;21211;-67
2021/01/17 06:11:12;;;;;;;26.40;13.28;;;;;;;-12.06;100.00;100115.34;1714613;82;21196;-67
2021/01/17 06:13:41;;;;;;;23.47;12.43;;;;;;;-12.03;100.00;100115.70;1711460;82;21496;-63
2021/01/17 06:19:10;;;;;;;29.57;13.90;;;;;;;-11.93;100.00;100123.78;1821942;77;22724;-64
2021/01/17 06:21:39;;;;;;;25.08;12.20;;;;;;;-11.96;100.00;100118.42;1789880;78;22544;-68
2021/01/17 06:24:09;;;;;;;25.77;13.28;;;;;;;-11.92;100.00;100126.27;1797955;79;21458;-67
2021/01/17 06:26:39;;;;;;;24.25;12.63;;;;;;;-11.92;100.00;100118.72;1786285;79;21571;-67
2021/01/17 06:29:12;;;;;;;23.60;11.10;;;;;;;-11.90;100.00;100111.95;1797093;79;27288;-67
2021/01/17 06:31:40;;;;;;;28.07;12.85;;;;;;;-11.88;100.00;100114.43;1790705;79;21574;-67
2021/01/17 06:34:13;;;;;;;26.25;12.53;;;;;;;-11.82;100.00;100107.51;1802053;78;20935;-68
2021/01/17 06:36:46;;;;;;;27.80;13.88;;;;;;;-11.75;100.00;100104.36;1799782;78;22153;-66
2021/01/17 06:39:22;;;;;;;26.12;13.62;;;;;;;-11.75;100.00;100108.13;1791992;79;21014;-68
2021/01/17 06:41:54;;;;;;;28.15;14.15;;;;;;;-11.74;100.00;100106.02;1792399;79;21097;-67
2021/01/17 06:44:29;;;;;;;25.55;14.13;;;;;;;-11.74;100.00;100108.95;1791243;79;21011;-66
2021/01/17 06:46:58;;;;;;;26.37;13.13;;;;;;;-11.69;100.00;100104.63;1789810;79;21626;-68
2021/01/17 06:49:35;;;;;;;23.10;12.45;;;;;;;-11.56;100.00;100107.95;1794960;79;21146;-66
2021/01/17 06:52:04;;;;;;;26.40;13.60;;;;;;;-11.41;100.00;100109.17;1796728;79;20998;-65
2021/01/17 06:54:36;;;;;;;30.17;14.53;;;;;;;-11.35;100.00;100098.11;1794241;79;21002;-61
2021/01/17 06:57:05;;;;;;;28.80;14.25;;;;;;;-11.38;100.00;100084.36;1794059;79;21134;-66
2021/01/17 06:59:40;;;;;;;24.60;13.72;;;;;;;-11.33;100.00;100083.33;1800835;79;21109;-64
2021/01/17 07:02:30;;;;;;;30.30;14.43;;;;;;;-11.27;100.00;100086.10;1803410;78;21336;-66
2021/01/17 07:05:37;;;;;;;33.25;15.18;;;;;;;-11.24;100.00;100089.78;1801604;78;21540;-66
2021/01/17 07:08:20;;;;;;;24.72;11.90;;;;;;;-11.24;100.00;100088.52;1802888;79;22213;-66
2021/01/17 07:10:50;;;;;;;35.90;16.20;;;;;;;-11.16;100.00;100072.73;1775517;79;21053;-67
2021/01/17 07:13:21;;;;;;;29.05;16.50;;;;;;;-11.04;100.00;100073.58;1793315;79;21110;-64
2021/01/17 07:15:49;;;;;;;23.90;13.58;;;;;;;-10.92;100.00;100062.72;1801760;78;22490;-66
2021/01/17 07:18:18;;;;;;;30.82;14.78;;;;;;;-10.81;100.00;100063.98;1788051;79;21129;-67
2021/01/17 07:20:50;;;;;;;31.23;16.37;;;;;;;-10.69;100.00;100061.48;1781490;79;21022;-63
2021/01/17 07:23:19;;;;;;;32.03;15.35;;;;;;;-10.65;100.00;100052.94;1785122;79;21126;-65
2021/01/17 07:25:48;;;;;;;28.75;14.10;;;;;;;-10.60;100.00;100052.80;1718641;82;21446;-65
2021/01/17 07:28:17;;;;;;;32.93;17.85;;;;;;;-10.58;100.00;100051.03;1781171;79;22121;-64
2021/01/17 07:31:08;;;;;;;27.90;14.68;;;;;;;-10.57;100.00;100044.70;1773857;79;21054;-61
2021/01/17 07:33:38;;;;;;;22.65;12.23;;;;;;;-10.55;100.00;100038.34;1772173;79;21620;-65
2021/01/17 07:36:10;;;;;;;29.55;13.88;;;;;;;-10.59;100.00;100041.40;1783322;79;27406;-66
2021/01/17 07:38:41;;;;;;;25.15;12.73;;;;;;;-10.55;100.00;100042.93;1786559;79;21137;-66
2021/01/17 07:41:11;;;;;;;81.50;36.80;;;;;;;-10.52;100.00;100031.12;1784377;79;21215;-65
2021/01/17 07:43:44;;;;;;;30.97;16.80;;;;;;;-10.47;100.00;100029.23;1781477;79;21163;-65
2021/01/17 07:46:17;;;;;;;26.82;14.15;;;;;;;-10.35;100.00;100033.83;1783369;79;21174;-65
2021/01/17 07:48:48;;;;;;;28.30;15.25;;;;;;;-10.31;100.00;100035.35;1776564;78;21012;-62
2021/01/17 07:51:16;;;;;;;25.40;13.38;;;;;;;-10.34;100.00;100035.05;1774839;79;21173;-65
2021/01/17 07:53:55;;;;;;;24.20;13.55;;;;;;;-10.35;100.00;100036.34;1775716;79;22489;-65
2021/01/17 07:56:33;;;;;;;30.20;15.18;;;;;;;-10.35;100.00;100041.38;1774562;78;21041;-62
2021/01/17 07:59:03;;;;;;;28.80;15.18;;;;;;;-10.26;100.00;100038.95;1780976;79;21086;-63
2021/01/17 08:01:39;;;;;;;32.90;19.37;;;;;;;-10.13;100.00;100042.64;1782272;79;21595;-66
2021/01/17 08:04:16;;;;;;;31.42;15.98;;;;;;;-10.02;100.00;100043.51;1780927;79;21622;-67
2021/01/17 08:06:49;;;;;;;29.57;16.12;;;;;;;-9.85;100.00;100044.52;1779623;79;21377;-66
2021/01/17 08:09:18;;;;;;;31.85;15.23;;;;;;;-9.71;100.00;100048.19;1772504;79;21130;-65
2021/01/17 08:12:02;;;;;;;28.02;16.40;;;;;;;-9.66;100.00;100040.83;1777185;79;21543;-67
2021/01/17 08:14:33;;;;;;;29.67;15.85;;;;;;;-9.69;100.00;100036.34;1780581;79;21034;-66
2021/01/17 08:17:17;;;;;;;30.12;16.50;;;;;;;-9.65;100.00;100036.16;1778814;79;21136;-66
2021/01/17 08:22:40;;;;;;;30.57;16.93;;;;;;;-9.38;100.00;100047.30;1822524;78;22484;-65
2021/01/17 08:25:09;;;;;;;31.30;16.25;;;;;;;-9.47;100.00;100050.17;1802367;79;21070;-62
2021/01/17 08:27:41;;;;;;;33.05;16.85;;;;;;;-9.41;100.00;100053.27;1803624;79;21185;-64
2021/01/17 08:30:20;;;;;;;24.35;14.30;;;;;;;-9.33;100.00;100044.13;1795444;79;21070;-66
2021/01/17 08:32:53;;;;;;;29.18;15.53;;;;;;;-9.26;100.00;100050.58;1795454;79;21675;-66
2021/01/17 08:35:27;;;;;;;28.90;14.73;;;;;;;-9.24;100.00;100046.30;1742493;82;21076;-66
2021/01/17 08:38:18;;;;;;;33.65;16.87;;;;;;;-9.22;100.00;100047.04;1764526;79;21611;-66
2021/01/17 08:40:50;;;;;;;29.20;14.10;;;;;;;-9.14;100.00;100049.25;1746229;81;21221;-66
2021/01/17 08:43:18;;;;;;;124.38;54.60;;;;;;;-9.11;100.00;100048.68;1765721;79;21590;-66
2021/01/17 08:45:49;;;;;;;42.05;20.95;;;;;;;-9.17;100.00;100049.37;1767200;80;21047;-66
2021/01/17 08:48:21;;;;;;;28.07;16.17;;;;;;;-9.19;100.00;100056.20;1736842;81;21555;-62
2021/01/17 08:50:54;;;;;;;28.52;14.28;;;;;;;-9.39;100.00;100058.28;1744664;82;22478;-68
2021/01/17 08:53:31;;;;;;;22.45;11.90;;;;;;;-9.60;100.00;100050.66;1760005;79;22142;-69
2021/01/17 08:56:19;;;;;;;27.87;14.70;;;;;;;-9.73;100.00;100057.09;1738198;80;21147;-64
2021/01/17 08:58:55;;;;;;;30.80;16.55;;;;;;;-9.91;100.00;100052.74;1755003;79;21059;-68
2021/01/17 09:01:23;;;;;;;28.10;16.42;;;;;;;-10.05;100.00;100056.59;1763028;79;21126;-66
2021/01/17 09:03:55;;;;;;;28.80;15.08;;;;;;;-10.10;100.00;100057.66;1763372;79;21051;-65
2021/01/17 09:06:25;;;;;;;26.55;14.65;;;;;;;-10.14;100.00;100056.13;1698635;80;21381;-66
2021/01/17 09:08:58;;;;;;;;;;;;;;;-10.07;100.00;100058.81;1686369;83;21248;-70
2021/01/17 09:11:37;;;;;;;30.17;16.87;;;;;;;-9.87;100.00;100039.95;1692209;83;20321;-66
2021/01/17 09:14:16;;;;;;;28.25;15.75;;;;;;;-9.58;100.00;100042.61;1711155;82;22575;-67
2021/01/17 09:16:57;;;;;;;56.77;27.73;;;;;;;-9.32;100.00;100040.72;1718007;83;21123;-67
2021/01/17 09:19:30;;;;;;;26.12;14.35;;;;;;;-9.09;100.00;100031.78;1716221;82;22420;-66
2021/01/17 09:22:00;;;;;;;58.70;24.27;;;;;;;-8.84;100.00;100021.88;1715948;83;21117;-68
2021/01/17 09:24:35;;;;;;;28.65;16.25;;;;;;;-8.70;100.00;100020.85;1716336;83;21001;-65
2021/01/17 09:27:07;;;;;;;29.25;15.18;;;;;;;-8.52;100.00;100007.02;1718134;83;21220;-66
2021/01/17 09:29:37;;;;;;;31.10;16.85;;;;;;;-8.34;100.00;100015.01;1716128;82;21088;-67
2021/01/17 09:32:15;;;;;;;27.35;13.83;;;;;;;-8.25;100.00;100012.53;1717965;83;21203;-70
2021/01/17 09:34:49;;;;;;;29.15;16.12;;;;;;;-7.96;100.00;100005.66;1716212;82;21114;-69
2021/01/17 09:37:19;;;;;;;26.62;15.30;;;;;;;-7.69;100.00;99994.70;1717372;83;20995;-69
2021/01/17 09:39:48;;;;;;;30.88;16.90;;;;;;;-7.60;100.00;100000.58;1715912;82;20951;-71
2021/01/17 09:42:18;;;;;;;27.87;16.07;;;;;;;-7.63;100.00;100006.23;1716444;83;21113;-70
2021/01/17 09:45:00;;;;;;;31.17;16.93;;;;;;;-7.57;100.00;100007.66;1709462;82;21389;-71
2021/01/17 09:47:29;;;;;;;78.70;34.98;;;;;;;-7.53;100.00;100007.44;1709255;83;21158;-74
2021/01/17 09:50:08;;;;;;;135.28;55.28;;;;;;;-7.60;100.00;99996.78;1707750;82;21658;-75
2021/01/17 09:52:39;;;;;;;102.62;46.48;;;;;;;-7.60;100.00;100001.84;1710462;82;21126;-69
2021/01/17 09:57:51;;;;;;;34.00;17.10;;;;;;;-7.70;100.00;100005.70;1680651;83;21209;-71
2021/01/17 10:00:21;;;;;;;29.65;15.58;;;;;;;-7.55;100.00;99986.88;1670299;84;21196;-71
2021/01/17 10:02:49;;;;;;;35.00;19.00;;;;;;;-7.43;100.00;99982.02;1663049;85;21024;-75
2021/01/17 10:05:29;;;;;;;32.00;15.75;;;;;;;-7.34;100.00;99982.03;1670871;84;21550;-68
2021/01/17 10:08:05;;;;;;;35.52;19.62;;;;;;;-7.28;100.00;99979.63;1669075;84;21592;-72
2021/01/17 10:10:36;;;;;;;32.98;19.73;;;;;;;-7.25;100.00;99990.43;1668232;83;21073;-73
2021/01/17 10:13:08;;;;;;;32.20;18.02;;;;;;;-7.27;100.00;99992.23;1668777;84;21045;-74
2021/01/17 10:15:40;;;;;;;34.70;17.50;;;;;;;-7.41;100.00;99997.97;1669282;84;21184;-70
2021/01/17 10:18:09;;;;;;;34.55;18.82;;;;;;;-7.44;100.00;100002.36;1668814;84;21391;-72
2021/01/17 10:23:19;;;;;;;32.03;17.97;;;;;;;-7.23;100.00;100003.03;1789646;77;22753;-73
2021/01/17 10:25:49;;;;;;;32.90;16.40;;;;;;;-7.26;100.00;99996.39;1752302;79;21014;-74
2021/01/17 10:28:18;;;;;;;26.97;15.55;;;;;;;-7.19;100.00;99980.00;1754660;80;21260;-70
2021/01/17 10:30:46;;;;;;;30.62;16.48;;;;;;;-7.12;100.00;99977.98;1758050;79;21091;-69
2021/01/17 10:33:15;;;;;;;27.22;15.15;;;;;;;-7.05;100.00;99990.69;1707566;83;21074;-72
2021/01/17 10:35:46;;;;;;;22.50;12.75;;;;;;;-7.20;100.00;99992.72;1708390;81;21075;-73
2021/01/17 10:38:15;;;;;;;26.45;14.75;;;;;;;-7.37;100.00;99984.71;1749432;79;21066;-72
2021/01/17 10:40:44;;;;;;;25.25;13.98;;;;;;;-7.52;100.00;99980.41;1749540;79;21502;-69
2021/01/17 10:43:32;;;;;;;29.87;15.58;;;;;;;-7.69;100.00;99999.77;1748302;79;20984;-70
2021/01/17 10:46:12;;;;;;;24.23;12.37;;;;;;;-7.86;100.00;99992.14;1741465;79;21021;-71
2021/01/17 10:48:56;;;;;;;28.57;15.65;;;;;;;-7.79;100.00;99980.84;1746853;79;21198;-75
2021/01/17 10:51:46;;;;;;;23.30;14.30;;;;;;;-7.89;100.00;99973.31;1758489;79;21031;-74
2021/01/17 10:54:23;;;;;;;26.48;14.25;;;;;;;-8.11;100.00;99960.85;1709242;82;21157;-69
2021/01/17 10:56:56;;;;;;;28.70;15.13;;;;;;;-8.24;100.00;99959.35;1717320;80;21046;-70
2021/01/17 10:59:27;;;;;;;32.27;16.87;;;;;;;-8.22;100.00;99950.00;1676468;81;21083;-70
2021/01/17 11:01:57;;;;;;;29.12;15.65;;;;;;;-8.08;100.00;99945.09;1704029;81;21551;-70
2021/01/17 11:04:26;;;;;;;28.92;15.00;;;;;;;-7.95;100.00;99944.53;1757981;79;25561;-70
2021/01/17 11:06:57;;;;;;;34.38;19.00;;;;;;;-7.91;100.00;99947.28;1732526;79;21331;-69
2021/01/17 11:09:27;;;;;;;30.92;17.87;;;;;;;-7.86;100.00;99951.22;1755675;79;21162;-70
2021/01/17 11:11:56;;;;;;;30.45;16.62;;;;;;;-7.75;100.00;99949.89;1745940;79;21166;-68
2021/01/17 11:17:09;;;;;;;28.17;16.23;;;;;;;-7.93;100.00;99955.38;1873997;75;22706;-70
2021/01/17 11:19:39;;;;;;;32.08;17.30;;;;;;;-8.13;100.00;99947.48;1771406;78;21065;-70
2021/01/17 11:22:08;;;;;;;32.80;15.85;;;;;;;-8.25;100.00;99941.30;1804913;78;21186;-70
2021/01/17 11:24:39;;;;;;;31.07;17.07;;;;;;;-8.28;100.00;99950.73;1794957;78;20969;-71
2021/01/17 11:27:13;;;;;;;29.15;15.95;;;;;;;-8.25;100.00;99950.59;1783159;80;21009;-69
2021/01/17 11:29:42;;;;;;;33.38;16.52;;;;;;;-8.30;100.00;99954.56;1795460;78;20994;-70
2021/01/17 11:32:11;;;;;;;32.70;18.50;;;;;;;-8.43;100.00;99954.80;1786015;80;21084;-70
2021/01/17 11:34:41;;;;;;;28.60;16.73;;;;;;;-8.52;100.00;99946.36;1807292;78;21196;-70
2021/01/17 11:37:09;;;;;;;28.90;15.15;;;;;;;-8.58;100.00;99949.55;1779898;78;21659;-71
2021/01/17 11:39:37;;;;;;;29.98;16.93;;;;;;;-8.60;100.00;99950.08;1806488;78;21049;-71
2021/01/17 11:42:11;;;;;;;27.87;14.83;;;;;;;-8.70;100.00;99945.50;1761752;80;20929;-71
2021/01/17 11:44:39;;;;;;;31.10;16.97;;;;;;;-8.79;100.00;99950.95;1762986;79;21190;-71
2021/01/17 11:47:13;;;;;;;29.95;14.60;;;;;;;-8.80;100.00;99951.84;1775481;79;21686;-71
2021/01/17 11:49:41;;;;;;;32.23;16.32;;;;;;;-8.77;100.00;99960.55;1784045;79;21168;-71
2021/01/17 11:52:13;;;;;;;28.95;15.35;;;;;;;-8.86;100.00;99973.97;1786997;79;21203;-72
2021/01/17 11:54:43;;;;;;;29.72;15.20;;;;;;;-8.87;100.00;99974.02;1781851;79;20998;-70
2021/01/17 11:57:11;;;;;;;35.05;17.05;;;;;;;-8.95;100.00;99971.02;1810913;78;20986;-69
2021/01/17 11:59:40;;;;;;;30.37;15.70;;;;;;;-9.04;100.00;99960.06;1778676;79;22268;-68
2021/01/17 12:02:21;;;;;;;34.45;16.52;;;;;;;-9.19;100.00;99964.06;1790879;79;21188;-69
2021/01/17 12:04:59;;;;;;;28.73;14.58;;;;;;;-9.29;100.00;99974.16;1811032;78;21176;-64
2021/01/17 12:07:28;;;;;;;33.35;17.60;;;;;;;-9.34;100.00;99970.13;1796347;79;21021;-67
2021/01/17 12:10:10;;;;;;;25.57;13.83;;;;;;;-9.41;100.00;99979.28;1785375;79;20996;-69
2021/01/17 12:12:39;;;;;;;27.67;15.18;;;;;;;-9.42;100.00;99967.11;1811213;78;21218;-69
2021/01/17 12:15:08;;;;;;;26.52;13.83;;;;;;;-9.43;100.00;99975.98;1788735;78;21191;-68
2021/01/17 12:17:38;;;;;;;25.85;13.83;;;;;;;-9.56;100.00;99981.54;1819393;78;20887;-68
2021/01/17 12:20:08;;;;;;;27.95;14.73;;;;;;;-9.66;100.00;99984.08;1815141;78;21112;-68
2021/01/17 12:22:37;;;;;;;28.32;14.25;;;;;;;-9.72;100.00;99981.79;1809693;78;21093;-67
2021/01/17 12:25:06;;;;;;;30.43;14.90;;;;;;;-9.76;100.00;99988.28;1809372;78;22705;-68
2021/01/17 12:27:35;;;;;;;27.32;13.80;;;;;;;-9.80;100.00;99997.67;1784310;79;20986;-70
2021/01/17 12:30:07;;;;;;;27.87;15.10;;;;;;;-9.89;100.00;99996.75;1812005;78;21148;-71
2021/01/17 12:32:35;;;;;;;29.65;15.35;;;;;;;-9.95;100.00;99994.49;1800958;78;20970;-67
2021/01/17 12:35:04;;;;;;;26.73;15.10;;;;;;;-10.00;100.00;99998.42;1812569;78;21570;-70
2021/01/17 12:37:32;;;;;;;26.55;13.18;;;;;;;-10.03;100.00;100009.09;1804764;78;21361;-69
2021/01/17 12:40:01;;;;;;;28.40;15.13;;;;;;;-10.04;100.00;100014.55;1795019;78;21504;-68
2021/01/17 12:42:30;;;;;;;27.62;15.03;;;;;;;-10.08;100.00;100015.55;1794666;79;21001;-68
2021/01/17 12:44:58;;;;;;;27.85;13.28;;;;;;;-10.26;100.00;100009.56;1790882;79;21523;-67
2021/01/17 12:47:28;;;;;;;30.02;14.05;;;;;;;-10.41;100.00;100016.44;1803013;78;21483;-68
2021/01/17 12:49:58;;;;;;;24.00;12.68;;;;;;;-10.60;100.00;100028.44;1812259;78;22262;-63
2021/01/17 12:52:26;;;;;;;23.18;12.30;;;;;;;-10.79;100.00;100035.00;1796928;78;21091;-68
2021/01/17 12:54:55;;;;;;;26.15;13.93;;;;;;;-10.95;100.00;100034.69;1783219;80;21114;-68
2021/01/17 12:57:23;;;;;;;23.67;12.68;;;;;;;-11.06;100.00;100035.48;1781024;80;21156;-68
2021/01/17 12:59:52;;;;;;;28.17;13.40;;;;;;;-11.10;100.00;100037.31;1793986;78;21209;-62
2021/01/17 13:02:20;;;;;;;22.22;12.25;;;;;;;-11.09;100.00;100038.13;1793107;78;22696;-68
2021/01/17 13:04:50;;;;;;;28.67;13.65;;;;;;;-11.14;100.00;100037.00;1813344;78;21808;-69
2021/01/17 13:07:19;;;;;;;27.62;13.32;;;;;;;-11.19;100.00;100045.59;1786977;78;20989;-68
2021/01/17 13:09:48;;;;;;;25.08;13.55;;;;;;;-11.28;100.00;100043.77;1788434;80;21067;-62
2021/01/17 13:12:18;;;;;;;23.80;10.10;;;;;;;-11.31;100.00;100044.30;1787690;80;21327;-67
2021/01/17 13:14:46;;;;;;;23.00;12.10;;;;;;;-11.25;100.00;100045.78;1815592;78;22095;-69
2021/01/17 13:17:15;;;;;;;26.07;12.53;;;;;;;-11.25;100.00;100041.57;1779221;80;20954;-68
2021/01/17 13:19:43;;;;;;;23.87;12.03;;;;;;;-11.30;100.00;100042.17;1803137;78;21006;-69
2021/01/17 13:22:11;;;;;;;25.00;12.82;;;;;;;-11.33;100.00;100043.08;1805232;78;21800;-69
2021/01/17 13:24:42;;;;;;;30.27;13.83;;;;;;;-11.41;100.00;100045.03;1798041;79;21216;-69
2021/01/17 13:27:11;;;;;;;23.42;11.10;;;;;;;-11.48;100.00;100037.73;1795558;79;22322;-69
2021/01/17 13:29:41;;;;;;;27.30;12.53;;;;;;;-11.52;100.00;100030.72;1794355;79;21034;-69
2021/01/17 13:32:10;;;;;;;27.42;12.65;;;;;;;-11.60;100.00;100033.48;1781717;80;21587;-69
2021/01/17 13:34:41;;;;;;;26.70;12.82;;;;;;;-11.63;100.00;100031.09;1781814;79;21002;-69
2021/01/17 13:37:11;;;;;;;29.00;12.30;;;;;;;-11.62;100.00;100037.75;1779949;79;21187;-68
2021/01/17 13:39:39;;;;;;;27.42;14.03;;;;;;;-11.63;100.00;100040.30;1792224;78;21373;-63
2021/01/17 13:42:08;;;;;;;24.50;12.95;;;;;;;-11.65;100.00;100056.70;1806780;78;21065;-68
2021/01/17 13:44:36;;;;;;;24.12;12.75;;;;;;;-11.64;100.00;100051.23;1809001;78;20978;-69
2021/01/17 13:47:05;;;;;;;22.27;11.10;;;;;;;-11.69;100.00;100041.77;1813948;78;21041;-67
2021/01/17 13:49:34;;;;;;;22.98;10.80;;;;;;;-11.71;100.00;100039.28;1774795;80;21192;-61
2021/01/17 13:52:04;;;;;;;23.75;11.00;;;;;;;-11.76;100.00;100051.19;1805474;78;22701;-68
2021/01/17 13:54:33;;;;;;;24.72;13.32;;;;;;;-11.82;100.00;100043.81;1797971;78;21156;-70
2021/01/17 13:57:02;;;;;;;28.05;13.45;;;;;;;-11.85;100.00;100036.43;1779798;79;21226;-68
2021/01/17 13:59:31;;;;;;;26.35;13.80;;;;;;;-11.86;100.00;100041.05;1792310;79;21082;-64
2021/01/17 14:01:59;;;;;;;23.35;10.68;;;;;;;-11.88;100.00;100045.31;1783610;79;21212;-66
2021/01/17 14:04:27;;;;;;;23.30;12.78;;;;;;;-11.92;100.00;100047.09;1778610;79;21240;-66
2021/01/17 14:06:57;;;;;;;26.05;12.63;;;;;;;-11.95;100.00;100046.37;1782829;80;21056;-66
2021/01/17 14:09:25;;;;;;;30.75;14.15;;;;;;;-11.96;100.00;100049.76;1801174;78;20883;-63
2021/01/17 14:11:56;;;;;;;27.32;14.18;;;;;;;-11.97;100.00;100043.06;1804591;78;21073;-66
2021/01/17 14:14:25;;;;;;;24.80;12.28;;;;;;;-12.00;100.00;100045.69;1795868;78;20950;-67
2021/01/17 14:16:54;;;;;;;24.63;13.08;;;;;;;-12.05;100.00;100038.27;1784350;79;22475;-66
2021/01/17 14:19:22;;;;;;;24.50;12.53;;;;;;;-12.09;100.00;100034.20;1796101;78;21140;-62
2021/01/17 14:21:50;;;;;;;29.48;15.08;;;;;;;-12.11;100.00;100014.16;1783040;79;21344;-67
2021/01/17 14:24:20;;;;;;;26.00;13.25;;;;;;;-12.11;100.00;100006.63;1781996;78;21125;-66
2021/01/17 14:26:48;;;;;;;22.85;11.68;;;;;;;-12.07;100.00;99998.12;1785075;79;21491;-66
2021/01/17 14:29:17;;;;;;;25.12;11.43;;;;;;;-12.07;100.00;100008.17;1799122;79;22656;-65
2021/01/17 14:31:50;;;;;;;25.32;13.00;;;;;;;-12.12;100.00;100008.76;1781704;79;21128;-67
2021/01/17 14:34:18;;;;;;;18.32;9.50;;;;;;;-12.18;100.00;100010.63;1792912;79;21172;-66
2021/01/17 14:36:49;;;;;;;25.23;12.05;;;;;;;-12.25;100.00;100012.48;1798301;79;21024;-65
2021/01/17 14:39:21;;;;;;;23.27;11.68;;;;;;;-12.33;100.00;100010.64;1785561;79;21108;-63
2021/01/17 14:41:58;;;;;;;22.37;11.22;;;;;;;-12.38;100.00;100008.27;1799044;78;21353;-65
2021/01/17 14:44:27;;;;;;;27.65;11.93;;;;;;;-12.41;100.00;100013.37;1766055;80;21065;-65
2021/01/17 14:46:56;;;;;;;24.27;12.58;;;;;;;-12.45;100.00;100025.63;1771391;80;21143;-65
2021/01/17 14:49:25;;;;;;;25.97;11.93;;;;;;;-12.46;100.00;100019.38;1778339;80;21492;-63
2021/01/17 14:51:58;;;;;;;24.87;13.53;;;;;;;-12.46;100.00;100006.83;1779458;79;21638;-64
2021/01/17 14:54:28;;;;;;;23.42;11.45;;;;;;;-12.48;100.00;99998.53;1783011;79;21185;-63
2021/01/17 14:56:56;;;;;;;26.75;11.57;;;;;;;-12.45;100.00;100001.78;1777863;80;21646;-66
2021/01/17 14:59:29;;;;;;;25.15;11.85;;;;;;;-12.42;100.00;99993.31;1785985;80;21041;-66
2021/01/17 15:02:01;;;;;;;28.20;12.03;;;;;;;-12.43;100.00;99995.01;1798413;78;21571;-65
2021/01/17 15:04:31;;;;;;;22.37;11.45;;;;;;;-12.52;100.00;99993.59;1801414;79;20935;-65
2021/01/17 15:07:00;;;;;;;24.43;11.12;;;;;;;-12.57;100.00;99993.35;1791540;79;21255;-63
2021/01/17 15:09:28;;;;;;;25.68;12.13;;;;;;;-12.62;100.00;99988.88;1781622;79;21844;-64
2021/01/17 15:11:57;;;;;;;27.77;12.10;;;;;;;-12.65;100.00;99994.83;1784514;79;21496;-65
2021/01/17 15:14:26;;;;;;;25.02;12.20;;;;;;;-12.65;100.00;99993.57;1783087;79;21800;-65
2021/01/17 15:16:55;;;;;;;26.77;12.60;;;;;;;-12.64;100.00;99992.70;1805965;78;21064;-62
2021/01/17 15:19:27;;;;;;;27.70;12.65;;;;;;;-12.60;100.00;99986.72;1794009;79;23007;-66
2021/01/17 15:21:54;;;;;;;97.62;61.15;;;;;;;-12.55;100.00;99986.14;1785716;79;21507;-66
2021/01/17 15:24:24;;;;;;;237.60;98.40;;;;;;;-12.49;100.00;99980.58;1807237;78;20995;-66
2021/01/17 15:26:56;;;;;;;576.73;276.90;;;;;;;-12.40;100.00;99986.13;1777943;80;21121;-63
2021/01/17 15:29:24;;;;;;;714.80;370.60;;;;;;;-12.31;100.00;99984.63;1779827;79;22235;-65
2021/01/17 15:31:53;;;;;;;831.85;421.10;;;;;;;-12.25;100.00;99981.09;1782839;80;22299;-65
2021/01/17 15:34:21;;;;;;;1137.55;508.55;;;;;;;-12.24;100.00;99987.75;1777310;79;21582;-65
2021/01/17 15:36:50;;;;;;;1891.18;652.13;;;;;;;-12.23;100.00;99991.08;1778330;79;21564;-62